Time;durP1;ratioP1;P1;durP2;ratioP2;P2;SDS_P1;SDS_P2;PMS_P1;PMS_P2;Temp;Humidity;BMP_temperature;BMP_pressure;BME280_temperature;BME280_humidity;BME280_pressure;Samples;Min_cycle;Max_cycle;Signal;HPM_P1;HPM_P2
2024/04/06 00:01:43;;;;;;;7.55;1.02;;;;;;;;;;4941639;29;20051;-73
2024/04/06 00:04:11;;;;;;;0.68;0.40;;;;;;;;;;4942025;29;20047;-74
2024/04/06 00:06:40;;;;;;;2.70;0.63;;;;;;;;;;4927849;29;20525;-75
2024/04/06 00:09:09;;;;;;;2.38;0.50;;;;;;;;;;4925855;29;20128;-75
2024/04/06 00:11:37;;;;;;;9.05;0.50;;;;;;;;;;4942378;29;20043;-74
2024/04/06 00:14:06;;;;;;;1.20;0.35;;;;;;;;;;4942108;29;20058;-74
2024/04/06 00:16:36;;;;;;;11.98;0.80;;;;;;;;;;4942284;29;20509;-74
2024/04/06 00:19:04;;;;;;;3.15;0.60;;;;;;;;;;4942534;29;20051;-73
2024/04/06 00:21:33;;;;;;;5.43;1.17;;;;;;;;;;4940529;29;20441;-77
2024/04/06 00:24:01;;;;;;;4.32;0.50;;;;;;;;;;4941073;29;20506;-76
2024/04/06 00:26:30;;;;;;;3.88;0.55;;;;;;;;;;4942169;28;20554;-75
2024/04/06 00:28:59;;;;;;;1.10;0.40;;;;;;;;;;4946632;29;20425;-79
2024/04/06 00:31:27;;;;;;;6.60;0.52;;;;;;;;;;4945853;29;20502;-76
2024/04/06 00:34:01;;;;;;;2.28;0.47;;;;;;;;;;4945016;29;20078;-76
2024/04/06 00:36:31;;;;;;;2.05;0.63;;;;;;;;;;4930451;29;20517;-76
2024/04/06 00:39:03;;;;;;;2.45;0.70;;;;;;;;;;4928952;29;20062;-75
2024/04/06 00:41:32;;;;;;;7.13;0.55;;;;;;;;;;4929906;29;20050;-73
2024/04/06 00:44:01;;;;;;;3.42;0.80;;;;;;;;;;4945601;29;20062;-73
2024/04/06 00:46:29;;;;;;;2.33;0.52;;;;;;;;;;4945770;29;20047;-74
2024/04/06 00:48:57;;;;;;;5.90;0.60;;;;;;;;;;4945936;29;20047;-74
2024/04/06 00:51:26;;;;;;;3.15;0.50;;;;;;;;;;4945484;29;20502;-76
2024/04/06 00:53:55;;;;;;;6.45;0.55;;;;;;;;;;4945631;29;20047;-76
2024/04/06 00:56:23;;;;;;;0.45;0.35;;;;;;;;;;4929095;29;20494;-76
2024/04/06 00:58:52;;;;;;;4.45;0.40;;;;;;;;;;4944882;29;20047;-75
2024/04/06 01:01:20;;;;;;;0.95;0.22;;;;;;;;;;4944870;29;20047;-78
2024/04/06 01:03:51;;;;;;;2.45;0.32;;;;;;;;;;4930298;29;20061;-77
2024/04/06 01:06:20;;;;;;;0.50;0.30;;;;;;;;;;4944481;29;21163;-77
2024/04/06 01:08:48;;;;;;;0.57;0.40;;;;;;;;;;4944950;29;20055;-78
2024/04/06 01:11:18;;;;;;;3.03;0.50;;;;;;;;;;4944919;29;20055;-75
2024/04/06 01:13:46;;;;;;;5.45;0.60;;;;;;;;;;4928421;29;20063;-77
2024/04/06 01:16:14;;;;;;;2.42;0.45;;;;;;;;;;4945376;29;20074;-75
2024/04/06 01:18:43;;;;;;;7.85;0.40;;;;;;;;;;4929131;29;20887;-73
2024/04/06 01:21:12;;;;;;;4.88;0.50;;;;;;;;;;4943758;29;20039;-75
2024/04/06 01:23:41;;;;;;;0.63;0.38;;;;;;;;;;4944995;29;20046;-77
2024/04/06 01:26:10;;;;;;;1.95;0.47;;;;;;;;;;4928185;29;20103;-75
2024/04/06 01:28:38;;;;;;;2.88;0.57;;;;;;;;;;4944870;29;20054;-74
2024/04/06 01:31:07;;;;;;;2.90;0.57;;;;;;;;;;4945197;29;20051;-77
2024/04/06 01:33:35;;;;;;;3.53;0.60;;;;;;;;;;4944452;29;20051;-76
2024/04/06 01:36:05;;;;;;;3.75;0.40;;;;;;;;;;4944879;29;20395;-77
2024/04/06 01:38:33;;;;;;;5.47;0.65;;;;;;;;;;4943094;28;20608;-77
2024/04/06 01:41:02;;;;;;;4.68;0.45;;;;;;;;;;4944649;29;20039;-75
2024/04/06 01:43:30;;;;;;;2.03;0.45;;;;;;;;;;4945284;29;20047;-76
2024/04/06 01:45:59;;;;;;;4.07;0.40;;;;;;;;;;4930445;29;20047;-76
2024/04/06 01:48:27;;;;;;;3.20;0.40;;;;;;;;;;4945401;29;20059;-77
2024/04/06 01:50:56;;;;;;;3.00;0.40;;;;;;;;;;4944616;29;20055;-75
2024/04/06 01:53:24;;;;;;;1.65;0.45;;;;;;;;;;4944232;29;20047;-76
2024/04/06 01:55:52;;;;;;;1.27;0.32;;;;;;;;;;4944533;29;20529;-76
2024/04/06 01:58:20;;;;;;;4.63;0.60;;;;;;;;;;4943853;29;20050;-77
2024/04/06 02:00:49;;;;;;;0.70;0.38;;;;;;;;;;4944057;29;20051;-76
2024/04/06 02:03:17;;;;;;;1.58;0.22;;;;;;;;;;4944297;29;20048;-74
2024/04/06 02:05:46;;;;;;;2.38;0.32;;;;;;;;;;4944015;29;20090;-76
2024/04/06 02:08:14;;;;;;;0.30;0.25;;;;;;;;;;4943695;29;20058;-75
2024/04/06 02:10:43;;;;;;;2.75;0.40;;;;;;;;;;4944155;29;20043;-75
2024/04/06 02:13:11;;;;;;;4.10;0.50;;;;;;;;;;4928481;29;20051;-75
2024/04/06 02:15:40;;;;;;;0.52;0.20;;;;;;;;;;4944909;29;20047;-74
2024/04/06 02:18:09;;;;;;;2.92;0.40;;;;;;;;;;4945044;29;20066;-74
2024/04/06 02:20:40;;;;;;;1.75;0.30;;;;;;;;;;4944110;29;20043;-76
2024/04/06 02:23:09;;;;;;;10.35;0.60;;;;;;;;;;4943721;29;20051;-77
2024/04/06 02:25:37;;;;;;;0.82;0.43;;;;;;;;;;4943240;29;20131;-75
2024/04/06 02:28:07;;;;;;;2.33;0.40;;;;;;;;;;4943614;29;20050;-75
2024/04/06 02:30:37;;;;;;;2.58;0.43;;;;;;;;;;4943829;29;20070;-74
2024/04/06 02:33:06;;;;;;;5.53;0.63;;;;;;;;;;4943232;29;20050;-78
2024/04/06 02:35:34;;;;;;;3.22;0.38;;;;;;;;;;4943350;29;20503;-76
2024/04/06 02:38:02;;;;;;;3.10;0.60;;;;;;;;;;4943813;29;20421;-75
2024/04/06 02:40:30;;;;;;;1.95;0.70;;;;;;;;;;4942946;29;20043;-75
2024/04/06 02:42:59;;;;;;;2.35;0.60;;;;;;;;;;4944033;29;20047;-77
2024/04/06 02:45:28;;;;;;;0.73;0.40;;;;;;;;;;4927405;29;20066;-76
2024/04/06 02:47:57;;;;;;;3.50;0.40;;;;;;;;;;4943887;29;20047;-74
2024/04/06 02:50:25;;;;;;;1.45;0.38;;;;;;;;;;4942897;28;20047;-73
2024/04/06 02:52:54;;;;;;;1.55;0.40;;;;;;;;;;4943719;29;20058;-75
2024/04/06 02:55:22;;;;;;;2.85;0.50;;;;;;;;;;4943236;29;20051;-75
2024/04/06 02:57:51;;;;;;;0.70;0.28;;;;;;;;;;4943222;29;20043;-75
2024/04/06 03:00:19;;;;;;;1.08;0.32;;;;;;;;;;4943173;29;20058;-77
2024/04/06 03:02:48;;;;;;;2.53;0.55;;;;;;;;;;4943719;29;20047;-76
2024/04/06 03:05:18;;;;;;;1.88;0.43;;;;;;;;;;4942863;29;20070;-76
2024/04/06 03:07:47;;;;;;;3.05;0.40;;;;;;;;;;4942729;29;20580;-74
2024/04/06 03:10:15;;;;;;;2.17;0.28;;;;;;;;;;4943319;29;20039;-74
2024/04/06 03:12:43;;;;;;;5.25;0.50;;;;;;;;;;4943532;29;20514;-76
2024/04/06 03:15:12;;;;;;;2.67;0.40;;;;;;;;;;4943321;29;20047;-74
2024/04/06 03:17:41;;;;;;;1.75;0.55;;;;;;;;;;4942297;29;20051;-75
2024/04/06 03:20:10;;;;;;;2.50;0.60;;;;;;;;;;4911359;29;20050;-75
2024/04/06 03:22:38;;;;;;;3.78;0.90;;;;;;;;;;4928011;29;20044;-75
2024/04/06 03:25:07;;;;;;;3.05;0.52;;;;;;;;;;4942876;29;20059;-75
2024/04/06 03:27:36;;;;;;;5.03;0.52;;;;;;;;;;4926905;29;20055;-76
2024/04/06 03:30:05;;;;;;;3.70;0.43;;;;;;;;;;4942594;29;20513;-75
2024/04/06 03:32:33;;;;;;;1.17;0.30;;;;;;;;;;4943606;29;20067;-74
2024/04/06 03:35:01;;;;;;;2.67;0.32;;;;;;;;;;4943633;29;20494;-75
2024/04/06 03:37:30;;;;;;;3.45;0.80;;;;;;;;;;4943147;29;20530;-75
2024/04/06 03:39:58;;;;;;;2.13;0.45;;;;;;;;;;4943391;29;20058;-75
2024/04/06 03:42:27;;;;;;;3.08;0.40;;;;;;;;;;4927847;29;20051;-75
2024/04/06 03:44:55;;;;;;;5.57;0.40;;;;;;;;;;4942363;29;20058;-81
2024/04/06 03:47:25;;;;;;;0.95;0.40;;;;;;;;;;4942419;29;20047;-76
2024/04/06 03:49:53;;;;;;;2.05;0.50;;;;;;;;;;4943402;29;20663;-76
2024/04/06 03:52:22;;;;;;;0.38;0.32;;;;;;;;;;4942500;29;20055;-74
2024/04/06 03:54:50;;;;;;;2.92;0.47;;;;;;;;;;4942828;29;20434;-75
2024/04/06 03:57:19;;;;;;;2.83;0.60;;;;;;;;;;4942105;29;20043;-76
2024/04/06 03:59:48;;;;;;;0.88;0.45;;;;;;;;;;4942327;29;20055;-76
2024/04/06 04:02:17;;;;;;;0.45;0.32;;;;;;;;;;4944412;28;20607;-74
2024/04/06 04:04:45;;;;;;;1.30;0.28;;;;;;;;;;4946488;29;20969;-76
2024/04/06 04:07:14;;;;;;;1.05;0.20;;;;;;;;;;4946134;29;20043;-74
2024/04/06 04:09:42;;;;;;;0.30;0.22;;;;;;;;;;4930495;29;20043;-76
2024/04/06 04:12:10;;;;;;;1.90;0.30;;;;;;;;;;4946436;29;20047;-75
2024/04/06 04:14:39;;;;;;;2.92;0.40;;;;;;;;;;4929817;29;20047;-77
2024/04/06 04:17:08;;;;;;;0.65;0.30;;;;;;;;;;4946071;29;20059;-75
2024/04/06 04:19:36;;;;;;;1.05;0.30;;;;;;;;;;4946176;29;20055;-74
2024/04/06 04:22:05;;;;;;;0.85;0.40;;;;;;;;;;4946489;29;20047;-74
2024/04/06 04:24:33;;;;;;;3.58;0.40;;;;;;;;;;4946314;29;20047;-75
2024/04/06 04:27:02;;;;;;;0.47;0.20;;;;;;;;;;4946417;29;20043;-75
2024/04/06 04:29:30;;;;;;;1.40;0.38;;;;;;;;;;4946385;29;20043;-75
2024/04/06 04:31:59;;;;;;;3.67;0.40;;;;;;;;;;4946223;29;20050;-76
2024/04/06 04:34:27;;;;;;;0.90;0.25;;;;;;;;;;4945505;29;20059;-76
2024/04/06 04:36:56;;;;;;;4.82;0.45;;;;;;;;;;4929066;29;20061;-75
2024/04/06 04:39:24;;;;;;;0.47;0.40;;;;;;;;;;4930457;29;20050;-75
2024/04/06 04:41:53;;;;;;;0.28;0.25;;;;;;;;;;4945476;29;20043;-77
2024/04/06 04:44:21;;;;;;;3.10;0.40;;;;;;;;;;4946094;29;20051;-76
2024/04/06 04:46:51;;;;;;;1.63;0.68;;;;;;;;;;4945598;29;20055;-76
2024/04/06 04:49:19;;;;;;;2.15;0.50;;;;;;;;;;4945064;29;20048;-75
2024/04/06 04:51:47;;;;;;;7.95;0.90;;;;;;;;;;4929925;29;21077;-75
2024/04/06 04:54:15;;;;;;;0.50;0.30;;;;;;;;;;4945198;29;20499;-74
2024/04/06 04:56:44;;;;;;;1.10;0.40;;;;;;;;;;4945731;29;20058;-75
2024/04/06 04:59:13;;;;;;;0.73;0.35;;;;;;;;;;4930307;29;20070;-74
2024/04/06 05:01:41;;;;;;;2.08;0.40;;;;;;;;;;4914453;29;20062;-76
2024/04/06 05:04:09;;;;;;;2.63;0.40;;;;;;;;;;4944763;29;20050;-77
2024/04/06 05:06:38;;;;;;;9.07;0.52;;;;;;;;;;4913496;29;20051;-75
2024/04/06 05:09:10;;;;;;;0.88;0.30;;;;;;;;;;4944770;29;20050;-74
2024/04/06 05:11:38;;;;;;;0.60;0.50;;;;;;;;;;4945264;29;20051;-75
2024/04/06 05:14:07;;;;;;;1.98;0.50;;;;;;;;;;4944408;28;20055;-76
2024/04/06 05:16:35;;;;;;;0.63;0.30;;;;;;;;;;4945633;29;20499;-75
2024/04/06 05:19:05;;;;;;;3.35;0.43;;;;;;;;;;4944956;29;20818;-76
2024/04/06 05:21:34;;;;;;;5.07;0.60;;;;;;;;;;4944990;29;20074;-77
2024/04/06 05:24:03;;;;;;;1.17;0.90;;;;;;;;;;4928836;29;20055;-76
2024/04/06 05:26:32;;;;;;;1.75;0.50;;;;;;;;;;4928535;29;20089;-75
2024/04/06 05:29:00;;;;;;;0.55;0.50;;;;;;;;;;4944658;29;20059;-75
2024/04/06 05:31:28;;;;;;;1.13;0.45;;;;;;;;;;4945049;29;20062;-74
2024/04/06 05:33:57;;;;;;;0.57;0.57;;;;;;;;;;4944901;29;20070;-75
2024/04/06 05:36:26;;;;;;;4.22;0.70;;;;;;;;;;4944736;29;20736;-74
2024/04/06 05:38:54;;;;;;;7.60;0.80;;;;;;;;;;4928346;29;20055;-75
2024/04/06 05:41:22;;;;;;;2.63;0.52;;;;;;;;;;4944931;29;20054;-76
2024/04/06 05:43:54;;;;;;;0.60;0.50;;;;;;;;;;4944765;29;20395;-76
2024/04/06 05:46:22;;;;;;;1.27;0.50;;;;;;;;;;4944948;29;20051;-75
2024/04/06 05:48:52;;;;;;;2.00;0.63;;;;;;;;;;4945260;29;20043;-76
2024/04/06 05:51:21;;;;;;;1.42;0.68;;;;;;;;;;4944912;29;20403;-76
2024/04/06 05:53:49;;;;;;;1.58;0.50;;;;;;;;;;4943938;29;20040;-75
2024/04/06 05:56:18;;;;;;;2.30;0.50;;;;;;;;;;4944089;29;20051;-74
2024/04/06 06:10:24;;;;;;;3.97;0.60;;;;;;;;;;5141380;27;20382;-74
2024/04/06 06:12:54;;;;;;;1.60;0.50;;;;;;;;;;5104634;27;20047;-74
2024/04/06 06:15:22;;;;;;;1.80;1.05;;;;;;;;;;5122891;27;20050;-74
2024/04/06 06:17:50;;;;;;;1.33;0.45;;;;;;;;;;5121815;27;20069;-76
2024/04/06 06:20:19;;;;;;;1.02;0.80;;;;;;;;;;5122373;27;20047;-74
2024/04/06 06:22:48;;;;;;;8.60;0.70;;;;;;;;;;5121811;27;20630;-74
2024/04/06 06:25:18;;;;;;;19.73;0.82;;;;;;;;;;5121923;27;20035;-74
2024/04/06 06:27:47;;;;;;;15.85;0.77;;;;;;;;;;5122260;27;20047;-76
2024/04/06 06:30:15;;;;;;;13.43;0.60;;;;;;;;;;5121607;27;20794;-75
2024/04/06 06:32:44;;;;;;;34.17;0.85;;;;;;;;;;5121666;27;20039;-75
2024/04/06 06:35:13;;;;;;;35.35;1.13;;;;;;;;;;5104979;27;20043;-75
2024/04/06 06:37:42;;;;;;;30.08;0.85;;;;;;;;;;5122111;27;20432;-75
2024/04/06 06:40:10;;;;;;;26.25;0.90;;;;;;;;;;5122443;27;20058;-75
2024/04/06 06:42:39;;;;;;;23.50;0.73;;;;;;;;;;5121699;27;20497;-75
2024/04/06 06:45:08;;;;;;;14.68;0.60;;;;;;;;;;5121639;27;20515;-75
2024/04/06 06:47:37;;;;;;;9.57;0.63;;;;;;;;;;5122028;27;20046;-74
2024/04/06 06:50:08;;;;;;;22.15;0.90;;;;;;;;;;5121711;27;20054;-75
2024/04/06 06:52:37;;;;;;;13.25;0.68;;;;;;;;;;5105766;27;20043;-76
2024/04/06 06:55:05;;;;;;;14.52;0.50;;;;;;;;;;5104242;27;20058;-74
2024/04/06 06:57:33;;;;;;;11.68;0.77;;;;;;;;;;5104655;27;20042;-74
2024/04/06 07:00:02;;;;;;;9.63;0.50;;;;;;;;;;5136727;27;20049;-76
2024/04/06 07:02:31;;;;;;;3.88;0.90;;;;;;;;;;5138943;27;20424;-75
2024/04/06 07:04:59;;;;;;;11.27;0.50;;;;;;;;;;5138706;27;20507;-76
2024/04/06 07:07:28;;;;;;;82.28;1.88;;;;;;;;;;5138131;27;20057;-75
2024/04/06 07:09:58;;;;;;;15.50;0.95;;;;;;;;;;5132321;27;20055;-75
2024/04/06 07:12:27;;;;;;;50.58;1.27;;;;;;;;;;5124620;27;20047;-75
2024/04/06 07:15:08;;;;;;;28.90;0.98;;;;;;;;;;5125005;27;20039;-75
2024/04/06 07:17:37;;;;;;;6.88;0.40;;;;;;;;;;5125216;27;20051;-74
2024/04/06 07:20:05;;;;;;;1.10;0.50;;;;;;;;;;5125024;27;20413;-74
2024/04/06 07:22:33;;;;;;;24.20;0.90;;;;;;;;;;5124287;27;20628;-74
2024/04/06 07:25:02;;;;;;;36.58;1.20;;;;;;;;;;5124602;27;20039;-75
2024/04/06 07:27:31;;;;;;;13.93;0.73;;;;;;;;;;5124450;27;20039;-75
2024/04/06 07:29:59;;;;;;;9.32;0.40;;;;;;;;;;5107805;27;20043;-74
2024/04/06 07:32:27;;;;;;;18.83;0.77;;;;;;;;;;5124376;27;20632;-75
2024/04/06 07:34:56;;;;;;;21.17;0.80;;;;;;;;;;5124350;27;20039;-75
2024/04/06 07:37:24;;;;;;;18.40;0.60;;;;;;;;;;5124160;27;20043;-75
2024/04/06 07:39:52;;;;;;;14.75;0.70;;;;;;;;;;5107032;27;20062;-74
2024/04/06 07:42:21;;;;;;;10.32;0.50;;;;;;;;;;5123929;27;20051;-74
2024/04/06 07:44:49;;;;;;;22.58;0.70;;;;;;;;;;5123744;27;20098;-75
2024/04/06 07:47:18;;;;;;;23.02;0.70;;;;;;;;;;5123910;27;20047;-73
2024/04/06 07:49:46;;;;;;;24.80;0.73;;;;;;;;;;5123782;27;20504;-76
2024/04/06 07:52:15;;;;;;;51.55;1.25;;;;;;;;;;5107039;27;20047;-73
2024/04/06 07:54:44;;;;;;;11.18;0.68;;;;;;;;;;5124817;27;20047;-77
2024/04/06 07:57:12;;;;;;;11.77;0.55;;;;;;;;;;5123710;27;20058;-75
2024/04/06 07:59:41;;;;;;;31.80;0.85;;;;;;;;;;5123291;27;20066;-76
2024/04/06 08:02:10;;;;;;;4.65;0.25;;;;;;;;;;5124140;27;20035;-75
2024/04/06 08:04:38;;;;;;;14.52;0.50;;;;;;;;;;5123644;27;20047;-75
2024/04/06 08:07:07;;;;;;;32.78;1.08;;;;;;;;;;5106485;27;20047;-75
2024/04/06 08:09:37;;;;;;;3.55;0.30;;;;;;;;;;5123642;27;20051;-74
2024/04/06 08:12:06;;;;;;;15.68;0.50;;;;;;;;;;5123192;27;20043;-74
2024/04/06 08:14:34;;;;;;;0.20;0.20;;;;;;;;;;5123130;27;20049;-76
2024/04/06 08:17:02;;;;;;;6.47;0.60;;;;;;;;;;5123475;27;20050;-76
2024/04/06 08:19:31;;;;;;;0.22;0.22;;;;;;;;;;5123723;27;20070;-74
2024/04/06 08:22:01;;;;;;;16.17;0.60;;;;;;;;;;5122957;27;20050;-74
2024/04/06 08:24:31;;;;;;;17.73;0.65;;;;;;;;;;5124152;27;20054;-74
2024/04/06 08:27:03;;;;;;;9.93;0.50;;;;;;;;;;5123272;27;20409;-75
2024/04/06 08:29:38;;;;;;;12.75;0.63;;;;;;;;;;5106053;27;20074;-74
2024/04/06 08:32:13;;;;;;;40.10;1.50;;;;;;;;;;5123730;27;20035;-74
2024/04/06 08:34:50;;;;;;;26.65;1.08;;;;;;;;;;5089667;27;20058;-75
2024/04/06 08:37:25;;;;;;;29.35;0.90;;;;;;;;;;5123500;27;20497;-74
2024/04/06 08:39:57;;;;;;;53.85;1.35;;;;;;;;;;5105674;27;20062;-76
2024/04/06 08:42:25;;;;;;;3.03;0.28;;;;;;;;;;5122869;27;20047;-76
2024/04/06 08:44:54;;;;;;;24.50;1.00;;;;;;;;;;5122983;27;20417;-75
2024/04/06 08:47:23;;;;;;;1.83;0.25;;;;;;;;;;5121268;27;20604;-76
2024/04/06 08:49:53;;;;;;;4.18;0.52;;;;;;;;;;5122354;27;20047;-75
2024/04/06 08:52:21;;;;;;;42.35;4.25;;;;;;;;;;5122346;27;20062;-75
2024/04/06 08:54:50;;;;;;;39.03;3.85;;;;;;;;;;5105981;27;20047;-74
2024/04/06 08:57:19;;;;;;;48.80;4.47;;;;;;;;;;5122287;27;20054;-75
2024/04/06 08:59:49;;;;;;;18.75;3.45;;;;;;;;;;5123013;27;20050;-75
2024/04/06 09:02:18;;;;;;;24.75;3.47;;;;;;;;;;5122282;27;20055;-76
2024/04/06 09:04:46;;;;;;;39.92;3.63;;;;;;;;;;5122194;27;20421;-75
2024/04/06 09:07:14;;;;;;;43.50;3.03;;;;;;;;;;5122026;27;20409;-76
2024/04/06 09:09:43;;;;;;;12.25;2.15;;;;;;;;;;5122099;27;20085;-75
2024/04/06 09:12:11;;;;;;;13.80;2.78;;;;;;;;;;5122551;27;20046;-74
2024/04/06 09:14:42;;;;;;;12.27;2.22;;;;;;;;;;5121622;27;20039;-75
2024/04/06 09:17:10;;;;;;;18.00;1.90;;;;;;;;;;5121966;27;20043;-75
2024/04/06 09:19:39;;;;;;;11.32;1.60;;;;;;;;;;5120671;27;20054;-76
2024/04/06 09:22:08;;;;;;;18.80;1.00;;;;;;;;;;5120013;27;20039;-74
2024/04/06 09:24:37;;;;;;;14.70;0.80;;;;;;;;;;5119025;27;20059;-75
2024/04/06 09:27:11;;;;;;;5.63;0.68;;;;;;;;;;5121652;27;20042;-76
2024/04/06 09:29:47;;;;;;;2.95;0.50;;;;;;;;;;5122336;27;20038;-75
2024/04/06 09:32:19;;;;;;;12.13;0.90;;;;;;;;;;5122368;27;20047;-76
2024/04/06 09:34:52;;;;;;;6.68;0.52;;;;;;;;;;5121936;27;20035;-74
2024/04/06 09:37:32;;;;;;;5.50;0.68;;;;;;;;;;5120987;27;20038;-75
2024/04/06 09:40:05;;;;;;;6.50;0.60;;;;;;;;;;5122078;27;20050;-75
2024/04/06 09:42:38;;;;;;;5.82;0.50;;;;;;;;;;5122080;27;20047;-75
2024/04/06 09:45:07;;;;;;;10.40;0.60;;;;;;;;;;5122656;27;20039;-74
2024/04/06 09:47:36;;;;;;;31.98;0.80;;;;;;;;;;5122171;27;20425;-75
2024/04/06 09:50:05;;;;;;;5.20;0.35;;;;;;;;;;5122438;27;20039;-75
2024/04/06 09:52:36;;;;;;;13.10;0.70;;;;;;;;;;5121407;27;20492;-75
2024/04/06 09:55:05;;;;;;;23.08;0.90;;;;;;;;;;5108894;27;20489;-75
2024/04/06 09:57:36;;;;;;;28.13;0.90;;;;;;;;;;5100832;28;20540;-75
2024/04/06 10:00:06;;;;;;;22.05;0.70;;;;;;;;;;5100525;28;20048;-75
2024/04/06 10:02:35;;;;;;;8.18;0.70;;;;;;;;;;5101560;28;20111;-76
2024/04/06 10:05:07;;;;;;;10.27;0.60;;;;;;;;;;5100525;28;20044;-74
2024/04/06 10:07:36;;;;;;;16.48;0.70;;;;;;;;;;5101526;28;20064;-74
2024/04/06 10:10:06;;;;;;;15.38;0.82;;;;;;;;;;5101419;28;20048;-75
2024/04/06 10:12:38;;;;;;;103.63;2.38;;;;;;;;;;5100926;28;20049;-75
2024/04/06 10:15:08;;;;;;;63.55;1.60;;;;;;;;;;5084369;28;20043;-75
2024/04/06 10:17:52;;;;;;;47.03;1.13;;;;;;;;;;5101578;28;20048;-75
2024/04/06 10:20:24;;;;;;;13.13;0.85;;;;;;;;;;5101109;28;20074;-75
2024/04/06 10:22:55;;;;;;;29.92;1.65;;;;;;;;;;5101054;28;20047;-75
2024/04/06 10:25:45;;;;;;;17.10;0.50;;;;;;;;;;5100771;28;20053;-74
2024/04/06 10:28:14;;;;;;;38.90;1.55;;;;;;;;;;5101272;28;20043;-74
2024/04/06 10:30:42;;;;;;;64.22;1.50;;;;;;;;;;5100720;28;20055;-75
2024/04/06 10:33:12;;;;;;;28.90;1.05;;;;;;;;;;5101590;28;20051;-75
2024/04/06 10:35:40;;;;;;;43.35;0.95;;;;;;;;;;5102118;28;20044;-75
2024/04/06 10:38:10;;;;;;;48.45;1.48;;;;;;;;;;5102195;28;20082;-76
2024/04/06 10:40:38;;;;;;;36.63;1.10;;;;;;;;;;5099394;28;20050;-74
2024/04/06 10:43:08;;;;;;;35.78;1.40;;;;;;;;;;5100325;28;20063;-74
2024/04/06 10:45:37;;;;;;;27.65;0.88;;;;;;;;;;5102037;28;20039;-75
2024/04/06 10:48:06;;;;;;;49.38;1.17;;;;;;;;;;5103987;28;20039;-74
2024/04/06 10:50:34;;;;;;;33.33;1.70;;;;;;;;;;5104083;28;20050;-74
2024/04/06 10:53:05;;;;;;;34.65;0.90;;;;;;;;;;5104928;28;20039;-76
2024/04/06 10:55:35;;;;;;;57.05;1.40;;;;;;;;;;5104120;28;20050;-75
2024/04/06 10:58:03;;;;;;;26.48;1.00;;;;;;;;;;5103949;28;20048;-77
2024/04/06 11:00:33;;;;;;;60.72;1.55;;;;;;;;;;5104211;28;20421;-74
2024/04/06 11:03:01;;;;;;;20.05;1.00;;;;;;;;;;5104881;28;20425;-74
2024/04/06 11:05:31;;;;;;;47.45;1.40;;;;;;;;;;5104385;28;20541;-75
2024/04/06 11:07:59;;;;;;;16.92;0.85;;;;;;;;;;5104245;28;20048;-74
2024/04/06 11:10:28;;;;;;;6.90;0.65;;;;;;;;;;5104474;28;20755;-74
2024/04/06 11:13:00;;;;;;;12.38;0.80;;;;;;;;;;5087437;28;20051;-74
2024/04/06 11:15:30;;;;;;;19.60;0.73;;;;;;;;;;5103591;28;20043;-74
2024/04/06 11:17:59;;;;;;;22.63;0.80;;;;;;;;;;5104600;28;20051;-78
2024/04/06 11:20:32;;;;;;;6.07;1.15;;;;;;;;;;5103604;28;20055;-73
2024/04/06 11:23:01;;;;;;;19.08;0.73;;;;;;;;;;5103612;28;20040;-73
2024/04/06 11:25:29;;;;;;;19.02;0.70;;;;;;;;;;5103855;28;20502;-73
2024/04/06 11:27:57;;;;;;;10.38;0.85;;;;;;;;;;5103680;28;20039;-73
2024/04/06 11:30:28;;;;;;;4.32;0.57;;;;;;;;;;5103719;28;20107;-73
2024/04/06 11:32:58;;;;;;;2.78;0.80;;;;;;;;;;5103821;28;20039;-73
2024/04/06 11:35:26;;;;;;;2.08;0.90;;;;;;;;;;5103878;28;20055;-78
2024/04/06 11:37:55;;;;;;;1.90;0.77;;;;;;;;;;5055540;28;20056;-80
2024/04/06 11:40:24;;;;;;;3.75;0.77;;;;;;;;;;5086510;28;20047;-73
2024/04/06 11:42:53;;;;;;;5.82;1.00;;;;;;;;;;5102849;28;20046;-73
2024/04/06 11:45:22;;;;;;;8.48;1.38;;;;;;;;;;5103343;28;20044;-73
2024/04/06 11:47:54;;;;;;;4.80;0.80;;;;;;;;;;5103209;28;20070;-78
2024/04/06 11:50:22;;;;;;;4.13;2.45;;;;;;;;;;5103416;28;20658;-73
2024/04/06 11:52:50;;;;;;;7.88;0.85;;;;;;;;;;5103429;28;20051;-73
2024/04/06 11:55:19;;;;;;;2.03;0.50;;;;;;;;;;5103180;28;20047;-74
2024/04/06 11:57:48;;;;;;;1.15;0.70;;;;;;;;;;5103977;28;20051;-73
2024/04/06 12:00:17;;;;;;;6.63;0.60;;;;;;;;;;5103607;28;20047;-75
2024/04/06 12:02:45;;;;;;;10.40;1.17;;;;;;;;;;5102742;28;20054;-73
2024/04/06 12:05:14;;;;;;;4.40;1.08;;;;;;;;;;5102874;28;20043;-73
2024/04/06 12:07:42;;;;;;;2.72;1.10;;;;;;;;;;5085826;28;20046;-73
2024/04/06 12:10:11;;;;;;;1.38;0.70;;;;;;;;;;5102613;28;20055;-73
2024/04/06 12:12:41;;;;;;;4.55;0.90;;;;;;;;;;5102695;28;20498;-75
2024/04/06 12:15:11;;;;;;;1.70;1.00;;;;;;;;;;5102412;28;20043;-75
2024/04/06 12:17:39;;;;;;;2.63;0.90;;;;;;;;;;5102533;28;20044;-75
2024/04/06 12:20:08;;;;;;;1.55;0.80;;;;;;;;;;5101942;28;20039;-75
2024/04/06 12:22:37;;;;;;;13.20;3.13;;;;;;;;;;5102830;28;20048;-75
2024/04/06 12:25:08;;;;;;;2.20;0.73;;;;;;;;;;5103144;28;20051;-75
2024/04/06 12:27:37;;;;;;;2.80;0.77;;;;;;;;;;5102768;28;20433;-75
2024/04/06 12:30:11;;;;;;;2.88;0.80;;;;;;;;;;5086560;28;21142;-75
2024/04/06 12:32:40;;;;;;;2.97;0.77;;;;;;;;;;5102140;28;20058;-75
2024/04/06 12:35:08;;;;;;;0.90;0.50;;;;;;;;;;5102304;28;20055;-75
2024/04/06 12:37:36;;;;;;;4.07;0.68;;;;;;;;;;5103898;28;20047;-77
2024/04/06 12:40:06;;;;;;;1.30;0.47;;;;;;;;;;5086931;28;20062;-75
2024/04/06 12:42:35;;;;;;;0.80;0.40;;;;;;;;;;5086398;28;20051;-75
2024/04/06 12:45:04;;;;;;;1.27;0.50;;;;;;;;;;5102234;28;20040;-78
2024/04/06 12:47:32;;;;;;;5.05;1.20;;;;;;;;;;5102379;28;20074;-75
2024/04/06 12:50:00;;;;;;;1.60;0.50;;;;;;;;;;5102273;28;20052;-74
2024/04/06 12:52:32;;;;;;;1.67;0.45;;;;;;;;;;5102008;28;20035;-75
2024/04/06 12:55:02;;;;;;;1.48;0.47;;;;;;;;;;5101989;28;20051;-75
2024/04/06 12:57:39;;;;;;;2.50;0.52;;;;;;;;;;5085247;28;20532;-74
2024/04/06 13:00:14;;;;;;;4.47;0.98;;;;;;;;;;5102124;28;20521;-75
2024/04/06 13:02:43;;;;;;;1.75;0.50;;;;;;;;;;5101902;28;20054;-75
2024/04/06 13:05:13;;;;;;;2.92;0.55;;;;;;;;;;5101547;28;20047;-76
2024/04/06 13:07:42;;;;;;;2.80;0.35;;;;;;;;;;5101146;28;20044;-76
2024/04/06 13:10:11;;;;;;;3.83;0.65;;;;;;;;;;5101134;28;20059;-76
2024/04/06 13:12:40;;;;;;;3.70;1.00;;;;;;;;;;5085145;28;20051;-75
2024/04/06 13:15:12;;;;;;;4.63;0.65;;;;;;;;;;5102396;28;20055;-76
2024/04/06 13:17:43;;;;;;;0.93;0.35;;;;;;;;;;5102553;28;20036;-75
2024/04/06 13:22:45;;;;;;;4.03;0.60;;;;;;;;;;5084979;28;20399;-75
2024/04/06 13:25:14;;;;;;;3.03;0.40;;;;;;;;;;5085206;28;20055;-75
2024/04/06 13:27:46;;;;;;;3.85;0.30;;;;;;;;;;5101889;28;20690;-76
2024/04/06 13:30:15;;;;;;;4.85;0.43;;;;;;;;;;5085456;28;20047;-76
2024/04/06 13:32:43;;;;;;;2.10;0.32;;;;;;;;;;5101384;28;20043;-75
2024/04/06 13:35:12;;;;;;;6.88;0.45;;;;;;;;;;5101547;28;20051;-76
2024/04/06 13:37:41;;;;;;;5.22;0.60;;;;;;;;;;5101210;28;20047;-75
2024/04/06 13:40:10;;;;;;;5.88;2.47;;;;;;;;;;5101333;28;20055;-75
2024/04/06 13:42:40;;;;;;;6.32;0.35;;;;;;;;;;5101304;28;20048;-76
2024/04/06 13:45:12;;;;;;;0.73;0.20;;;;;;;;;;5084605;28;20043;-75
2024/04/06 13:47:41;;;;;;;1.67;0.25;;;;;;;;;;5100993;28;20047;-75
2024/04/06 13:50:10;;;;;;;1.48;0.47;;;;;;;;;;5084166;28;20382;-76
2024/04/06 13:52:40;;;;;;;0.68;0.32;;;;;;;;;;5087218;28;20407;-78
2024/04/06 13:55:08;;;;;;;2.50;0.55;;;;;;;;;;5101485;28;20525;-75
2024/04/06 13:57:38;;;;;;;1.10;0.28;;;;;;;;;;5087591;28;20047;-74
2024/04/06 14:00:08;;;;;;;0.15;0.15;;;;;;;;;;5101021;28;20036;-76
2024/04/06 14:02:39;;;;;;;3.58;0.43;;;;;;;;;;5101732;28;20054;-76
2024/04/06 14:05:08;;;;;;;;;;;;;;;;;;5104514;28;20039;-75
2024/04/06 14:07:36;;;;;;;11.75;1.00;;;;;;;;;;5106542;28;20293;-74
2024/04/06 14:10:06;;;;;;;4.07;0.40;;;;;;;;;;5088313;28;20281;-78
2024/04/06 14:12:39;;;;;;;2.95;0.47;;;;;;;;;;5101696;28;20093;-76
2024/04/06 14:15:08;;;;;;;3.00;0.40;;;;;;;;;;5103252;28;20052;-74
2024/04/06 14:17:36;;;;;;;1.65;0.35;;;;;;;;;;5101021;28;20047;-75
2024/04/06 14:20:08;;;;;;;5.47;0.73;;;;;;;;;;5101917;28;20059;-75
2024/04/06 14:22:40;;;;;;;1.33;0.20;;;;;;;;;;5106597;28;20063;-76
2024/04/06 14:25:10;;;;;;;3.75;0.45;;;;;;;;;;5089409;28;20047;-75
2024/04/06 14:27:40;;;;;;;3.13;0.32;;;;;;;;;;5089081;28;20047;-73
2024/04/06 14:33:12;;;;;;;1.98;0.38;;;;;;;;;;5051226;28;20552;-75
2024/04/06 14:35:41;;;;;;;2.35;0.52;;;;;;;;;;5099495;28;20417;-76
2024/04/06 14:38:10;;;;;;;;;;;;;;;;;;5108158;28;20040;-75
2024/04/06 14:40:38;;;;;;;1.65;0.40;;;;;;;;;;5106453;28;20536;-75
2024/04/06 14:43:07;;;;;;;1.70;0.20;;;;;;;;;;5105244;28;20070;-73
2024/04/06 14:45:35;;;;;;;2.95;0.40;;;;;;;;;;5104537;28;20067;-76
2024/04/06 14:48:03;;;;;;;0.93;0.22;;;;;;;;;;5105182;28;20048;-75
2024/04/06 14:50:32;;;;;;;0.38;0.30;;;;;;;;;;5105423;28;20050;-75
2024/04/06 14:53:01;;;;;;;2.13;0.32;;;;;;;;;;5104898;28;20047;-75
2024/04/06 14:55:29;;;;;;;3.85;0.40;;;;;;;;;;5104729;28;20043;-74
2024/04/06 14:57:58;;;;;;;1.10;0.20;;;;;;;;;;5104345;28;20505;-73
2024/04/06 15:00:26;;;;;;;2.92;0.40;;;;;;;;;;5087191;28;20494;-75
2024/04/06 15:02:56;;;;;;;3.00;0.28;;;;;;;;;;5104492;28;20047;-75
2024/04/06 15:05:24;;;;;;;2.28;0.52;;;;;;;;;;5104200;28;20043;-78
2024/04/06 15:07:53;;;;;;;1.35;0.30;;;;;;;;;;5104514;28;20050;-74
2024/04/06 15:10:22;;;;;;;1.83;0.30;;;;;;;;;;5104000;28;20054;-75